Balen, Belgium
Current Conditions -  °F | °C
As of 9:25 PM on Monday 22 Dec 2014 (Local Time) from EBDT Reporting Station
Broken Clouds Broken Clouds  
Wind Chill: 54°   Ceiling: 3700
Heat Index: 54°   Visibility: 6mi
Dew Point: 46°   Wind: 17mph
Humidity: 77%   Direction: 250°WSW
Pressure: 30.09"   Gusts: NA
Location:  51.17°N, 5.17°E
Report Text: EBDT 222025Z AUTO 25015KT 9999 FEW014/// SCT031/// BKN037/// 12/08 Q1019 BLU
Loading
Personal Weather Stations






























Interactive Weather Map New forecast layout! Learn more

10-Day Weather Forecast

Advertisements
Track Severe Weather on mobile